createdAt,value
2018-05-01T00:00:41.000Z,99022
2018-05-01T00:02:41.000Z,99022
2018-05-01T00:04:26.000Z,99027
2018-05-01T00:05:41.000Z,99032
2018-05-01T00:06:41.000Z,99023
2018-05-01T00:08:26.000Z,99026
2018-05-01T00:09:41.000Z,99029
2018-05-01T00:10:41.000Z,99030
2018-05-01T00:12:41.000Z,99031
2018-05-01T00:14:41.000Z,99030
2018-05-01T00:16:41.000Z,99035
2018-05-01T00:18:41.000Z,99041
2018-05-01T00:19:41.000Z,99029
2018-05-01T00:21:26.000Z,99038
2018-05-01T00:22:41.000Z,99036
2018-05-01T00:24:26.000Z,99035
2018-05-01T00:25:41.000Z,99043
2018-05-01T00:27:26.000Z,99040
2018-05-01T00:28:41.000Z,99045
2018-05-01T00:30:41.000Z,99045
2018-05-01T00:32:26.000Z,99047
2018-05-01T00:33:41.000Z,99051
2018-05-01T00:34:41.000Z,99061
2018-05-01T00:36:41.000Z,99057
2018-05-01T00:38:41.000Z,99063
2018-05-01T00:40:41.000Z,99061
2018-05-01T00:42:26.000Z,99055
2018-05-01T00:43:41.000Z,99054
2018-05-01T00:44:41.000Z,99049
2018-05-01T00:46:41.000Z,99066
2018-05-01T00:48:41.000Z,99062
2018-05-01T00:50:41.000Z,99069
2018-05-01T00:52:41.000Z,99078
2018-05-01T00:53:41.000Z,99064
2018-05-01T00:55:41.000Z,99077
2018-05-01T00:57:41.000Z,99088
2018-05-01T00:58:41.000Z,99072
2018-05-01T01:00:41.000Z,99077
2018-05-01T01:02:41.000Z,99088
2018-05-01T01:04:26.000Z,99089
2018-05-01T01:05:41.000Z,99089
2018-05-01T01:06:41.000Z,99080
2018-05-01T01:08:41.000Z,99088
2018-05-01T01:09:42.000Z,99089
2018-05-01T01:11:41.000Z,99085
2018-05-01T01:13:41.000Z,99096
2018-05-01T01:15:41.000Z,99092
2018-05-01T01:17:41.000Z,99103
2018-05-01T01:19:41.000Z,99111
2018-05-01T01:21:41.000Z,99103
2018-05-01T01:23:41.000Z,99104
2018-05-01T01:25:41.000Z,99111
2018-05-01T01:26:41.000Z,99109
2018-05-01T01:28:11.000Z,99102
2018-05-01T01:29:41.000Z,99110
2018-05-01T01:30:41.000Z,99118
2018-05-01T01:32:41.000Z,99119
2018-05-01T01:34:41.000Z,99111
2018-05-01T01:36:41.000Z,99104
2018-05-01T01:37:41.000Z,99120
2018-05-01T01:39:41.000Z,99119
2018-05-01T01:41:41.000Z,99127
2018-05-01T01:43:41.000Z,99119
2018-05-01T01:44:41.000Z,99131
2018-05-01T01:46:41.000Z,99123
2018-05-01T01:47:41.000Z,99122
2018-05-01T01:49:41.000Z,99136
2018-05-01T01:51:41.000Z,99131
2018-05-01T01:52:41.000Z,99132
2018-05-01T01:54:41.000Z,99131
2018-05-01T01:55:41.000Z,99130
2018-05-01T01:57:42.000Z,99133
2018-05-01T01:59:41.000Z,99140
2018-05-01T02:01:41.000Z,99145
2018-05-01T02:02:41.000Z,99148
2018-05-01T02:03:42.000Z,99146
2018-05-01T02:05:27.000Z,99139
2018-05-01T02:06:42.000Z,99148
2018-05-01T02:08:42.000Z,99142
2018-05-01T02:10:42.000Z,99157
2018-05-01T02:12:26.000Z,99158
2018-05-01T02:13:42.000Z,99147
2018-05-01T02:14:42.000Z,99157
2018-05-01T02:16:26.000Z,99161
2018-05-01T02:17:42.000Z,99153
2018-05-01T02:18:42.000Z,99163
2018-05-01T02:20:42.000Z,99165
2018-05-01T02:22:42.000Z,99160
2018-05-01T02:24:42.000Z,99165
2018-05-01T02:25:42.000Z,99162
2018-05-01T02:26:42.000Z,99161
2018-05-01T02:28:42.000Z,99160
2018-05-01T02:30:42.000Z,99168
2018-05-01T02:32:42.000Z,99166
2018-05-01T02:34:42.000Z,99175
2018-05-01T02:36:26.000Z,99169
2018-05-01T02:37:42.000Z,99166
2018-05-01T02:38:42.000Z,99173
2018-05-01T02:40:42.000Z,99183
2018-05-01T02:41:42.000Z,99173
2018-05-01T02:42:42.000Z,99180
2018-05-01T02:44:26.000Z,99185
2018-05-01T02:45:42.000Z,99180
2018-05-01T02:46:42.000Z,99177
2018-05-01T02:48:42.000Z,99190
2018-05-01T02:49:42.000Z,99190
2018-05-01T02:51:42.000Z,99193
2018-05-01T02:53:42.000Z,99180
2018-05-01T02:55:26.000Z,99195
2018-05-01T02:56:42.000Z,99184
2018-05-01T02:57:42.000Z,99180
2018-05-01T02:58:42.000Z,99196
2018-05-01T03:00:42.000Z,99192
2018-05-01T03:02:42.000Z,99205
2018-05-01T03:03:42.000Z,99192
2018-05-01T03:05:42.000Z,99196
2018-05-01T03:07:42.000Z,99209
2018-05-01T03:09:42.000Z,99204
2018-05-01T03:11:42.000Z,99211
2018-05-01T03:12:42.000Z,99205
2018-05-01T03:14:42.000Z,99203
2018-05-01T03:16:42.000Z,99209
2018-05-01T03:18:42.000Z,99204
2018-05-01T03:19:42.000Z,99212
2018-05-01T03:21:42.000Z,99210
2018-05-01T03:23:11.000Z,99205
2018-05-01T03:24:42.000Z,99218
2018-05-01T03:26:42.000Z,99213
2018-05-01T03:27:42.000Z,99207
2018-05-01T03:32:42.000Z,99211
2018-05-01T03:34:28.000Z,99215
2018-05-01T03:36:28.000Z,99224
2018-05-01T03:38:28.000Z,99223
2018-05-01T03:40:28.000Z,99225
2018-05-01T03:42:28.000Z,99228
2018-05-01T03:43:28.000Z,99224
2018-05-01T03:45:28.000Z,99236
2018-05-01T03:47:28.000Z,99233
2018-05-01T03:49:28.000Z,99243
2018-05-01T03:51:28.000Z,99235
2018-05-01T03:52:57.000Z,99237
2018-05-01T03:54:28.000Z,99233
2018-05-01T03:55:28.000Z,99236
2018-05-01T03:57:28.000Z,99250
2018-05-01T03:59:28.000Z,99250
2018-05-01T04:01:28.000Z,99246
2018-05-01T04:03:28.000Z,99243
2018-05-01T04:04:28.000Z,99256
2018-05-01T04:06:12.000Z,99258
2018-05-01T04:07:28.000Z,99262
2018-05-01T04:09:12.000Z,99265
2018-05-01T04:10:27.000Z,99264
2018-05-01T04:12:12.000Z,99263
2018-05-01T04:13:12.000Z,99269
2018-05-01T04:14:28.000Z,99261
2018-05-01T04:16:27.000Z,99274
2018-05-01T04:18:27.000Z,99278
2018-05-01T04:19:27.000Z,99281
2018-05-01T04:21:27.000Z,99281
2018-05-01T04:23:27.000Z,99292
2018-05-01T04:24:27.000Z,99292
2018-05-01T04:25:27.000Z,99295
2018-05-01T04:27:27.000Z,99294
2018-05-01T04:28:27.000Z,99279
2018-05-01T04:30:27.000Z,99296
2018-05-01T04:31:27.000Z,99299
2018-05-01T04:33:27.000Z,99300
2018-05-01T04:35:27.000Z,99309
2018-05-01T04:36:57.000Z,99301
2018-05-01T04:38:27.000Z,99308
2018-05-01T04:40:27.000Z,99318
2018-05-01T04:41:28.000Z,99321
2018-05-01T04:43:27.000Z,99320
2018-05-01T04:44:27.000Z,99321
2018-05-01T04:45:27.000Z,99324
2018-05-01T04:47:27.000Z,99319
2018-05-01T04:49:12.000Z,99334
2018-05-01T04:50:27.000Z,99327
2018-05-01T04:51:27.000Z,99330
2018-05-01T04:53:12.000Z,99336
2018-05-01T04:54:27.000Z,99340
2018-05-01T04:56:27.000Z,99344
2018-05-01T04:57:27.000Z,99340
2018-05-01T04:59:12.000Z,99347
2018-05-01T05:00:12.000Z,99348
2018-05-01T05:01:27.000Z,99344
2018-05-01T05:02:27.000Z,99348
2018-05-01T05:03:27.000Z,99353
2018-05-01T05:05:27.000Z,99351
2018-05-01T05:07:27.000Z,99355
2018-05-01T05:08:27.000Z,99359
2018-05-01T05:10:27.000Z,99358
2018-05-01T05:12:27.000Z,99359
2018-05-01T05:14:27.000Z,99370
2018-05-01T05:16:27.000Z,99374
2018-05-01T05:17:27.000Z,99370
2018-05-01T05:18:27.000Z,99374
2018-05-01T05:20:27.000Z,99371
2018-05-01T05:21:27.000Z,99384
2018-05-01T05:23:27.000Z,99387
2018-05-01T05:25:27.000Z,99382
2018-05-01T05:27:27.000Z,99384
2018-05-01T05:29:27.000Z,99391
2018-05-01T05:30:27.000Z,99389
2018-05-01T05:32:12.000Z,99398
2018-05-01T05:33:27.000Z,99408
2018-05-01T05:35:27.000Z,99416
2018-05-01T05:37:27.000Z,99405
2018-05-01T05:39:27.000Z,99404
2018-05-01T05:41:27.000Z,99407
2018-05-01T05:43:27.000Z,99415
2018-05-01T05:45:27.000Z,99419
2018-05-01T05:47:27.000Z,99426
2018-05-01T05:49:27.000Z,99427
2018-05-01T05:50:27.000Z,99428
2018-05-01T05:52:27.000Z,99423
2018-05-01T05:54:12.000Z,99442
2018-05-01T05:55:27.000Z,99443
2018-05-01T05:57:27.000Z,99446
2018-05-01T05:59:12.000Z,99444
2018-05-01T06:00:27.000Z,99457
2018-05-01T06:01:27.000Z,99433
2018-05-01T06:03:12.000Z,99451
2018-05-01T06:04:27.000Z,99450
2018-05-01T06:05:27.000Z,99448
2018-05-01T06:07:27.000Z,99450
2018-05-01T06:08:27.000Z,99454
2018-05-01T06:10:27.000Z,99442
2018-05-01T06:11:27.000Z,99461
2018-05-01T06:13:27.000Z,99458
2018-05-01T06:14:27.000Z,99459
2018-05-01T06:16:27.000Z,99465
2018-05-01T06:17:28.000Z,99457
2018-05-01T06:19:28.000Z,99465
2018-05-01T06:21:28.000Z,99484
2018-05-01T06:23:28.000Z,99486
2018-05-01T06:24:28.000Z,99484
2018-05-01T06:25:28.000Z,99491
2018-05-01T06:27:28.000Z,99497
2018-05-01T06:29:28.000Z,99498
2018-05-01T06:31:12.000Z,99497
2018-05-01T06:32:28.000Z,99504
2018-05-01T06:33:28.000Z,99507
2018-05-01T06:35:28.000Z,99512
2018-05-01T06:36:28.000Z,99512
2018-05-01T06:38:28.000Z,99526
2018-05-01T06:40:28.000Z,99520
2018-05-01T06:41:28.000Z,99525
2018-05-01T06:43:28.000Z,99529
2018-05-01T06:44:28.000Z,99528
2018-05-01T06:46:28.000Z,99519
2018-05-01T06:48:28.000Z,99526
2018-05-01T06:49:28.000Z,99535
2018-05-01T06:51:28.000Z,99530
2018-05-01T06:52:28.000Z,99538
2018-05-01T06:54:28.000Z,99545
2018-05-01T06:56:12.000Z,99537
2018-05-01T06:57:28.000Z,99539
2018-05-01T06:58:28.000Z,99540
2018-05-01T06:59:28.000Z,99543
2018-05-01T07:01:28.000Z,99549
2018-05-01T07:03:28.000Z,99556
2018-05-01T07:07:28.000Z,99552
2018-05-01T07:09:13.000Z,99572
2018-05-01T07:11:13.000Z,99567
2018-05-01T07:13:13.000Z,99571
2018-05-01T07:14:58.000Z,99584
2018-05-01T07:16:13.000Z,99581
2018-05-01T07:18:13.000Z,99582
2018-05-01T07:20:13.000Z,99591
2018-05-01T07:21:13.000Z,99590
2018-05-01T07:23:13.000Z,99586
2018-05-01T07:25:13.000Z,99603
2018-05-01T07:27:13.000Z,99599
2018-05-01T07:28:13.000Z,99606
2018-05-01T07:30:13.000Z,99604
2018-05-01T07:31:57.000Z,99600
2018-05-01T07:33:13.000Z,99612
2018-05-01T07:34:57.000Z,99614
2018-05-01T07:36:13.000Z,99604
2018-05-01T07:38:13.000Z,99590
2018-05-01T07:39:13.000Z,99605
2018-05-01T07:41:13.000Z,99596
2018-05-01T07:42:13.000Z,99604
2018-05-01T07:44:13.000Z,99594
2018-05-01T07:46:13.000Z,99602
2018-05-01T07:48:13.000Z,99610
2018-05-01T07:49:13.000Z,99609
2018-05-01T07:50:57.000Z,99606
2018-05-01T07:52:13.000Z,99615
2018-05-01T07:53:13.000Z,99614
2018-05-01T07:55:13.000Z,99605
2018-05-01T07:57:13.000Z,99614
2018-05-01T07:59:13.000Z,99619
2018-05-01T08:01:13.000Z,99612
2018-05-01T08:02:13.000Z,99615
2018-05-01T08:04:13.000Z,99620
2018-05-01T08:06:13.000Z,99625
2018-05-01T08:08:13.000Z,99626
2018-05-01T08:09:13.000Z,99633
2018-05-01T08:11:13.000Z,99629
2018-05-01T08:12:57.000Z,99634
2018-05-01T08:14:13.000Z,99640
2018-05-01T08:15:13.000Z,99635
2018-05-01T08:17:13.000Z,99641
2018-05-01T08:19:13.000Z,99638
2018-05-01T08:21:13.000Z,99642
2018-05-01T08:22:42.000Z,99633
2018-05-01T08:24:13.000Z,99644
2018-05-01T08:25:58.000Z,99666
2018-05-01T08:27:13.000Z,99655
2018-05-01T08:29:13.000Z,99652
2018-05-01T08:30:13.000Z,99652
2018-05-01T08:31:13.000Z,99661
2018-05-01T08:32:58.000Z,99661
2018-05-01T08:34:13.000Z,99665
2018-05-01T08:36:13.000Z,99673
2018-05-01T08:38:13.000Z,99666
2018-05-01T08:40:13.000Z,99672
2018-05-01T08:42:13.000Z,99678
2018-05-01T08:43:13.000Z,99668
2018-05-01T08:44:58.000Z,99668
2018-05-01T08:46:13.000Z,99676
2018-05-01T08:47:58.000Z,99682
2018-05-01T08:49:13.000Z,99675
2018-05-01T08:50:42.000Z,99674
2018-05-01T08:52:13.000Z,99682
2018-05-01T08:54:13.000Z,99688
2018-05-01T08:56:13.000Z,99695
2018-05-01T08:58:13.000Z,99699
2018-05-01T09:00:13.000Z,99688
2018-05-01T09:02:13.000Z,99693
2018-05-01T09:04:13.000Z,99710
2018-05-01T09:05:13.000Z,99702
2018-05-01T09:07:13.000Z,99697
2018-05-01T09:09:13.000Z,99713
2018-05-01T09:10:13.000Z,99707
2018-05-01T09:12:13.000Z,99708
2018-05-01T09:14:13.000Z,99710
2018-05-01T09:16:13.000Z,99707
2018-05-01T09:17:13.000Z,99712
2018-05-01T09:18:13.000Z,99714
2018-05-01T09:20:13.000Z,99720
2018-05-01T09:21:58.000Z,99721
2018-05-01T09:23:13.000Z,99725
2018-05-01T09:25:13.000Z,99725
2018-05-01T09:27:13.000Z,99735
2018-05-01T09:29:13.000Z,99726
2018-05-01T09:30:13.000Z,99748
2018-05-01T09:32:13.000Z,99712
2018-05-01T09:33:13.000Z,99732
2018-05-01T09:34:13.000Z,99737
2018-05-01T09:36:13.000Z,99729
2018-05-01T09:38:13.000Z,99744
2018-05-01T09:39:13.000Z,99738
2018-05-01T09:41:13.000Z,99757
2018-05-01T09:43:13.000Z,99750
2018-05-01T09:44:13.000Z,99749
2018-05-01T09:46:13.000Z,99756
2018-05-01T09:48:13.000Z,99760
2018-05-01T09:50:13.000Z,99760
2018-05-01T09:52:13.000Z,99763
2018-05-01T09:53:13.000Z,99758
2018-05-01T09:55:13.000Z,99763
2018-05-01T09:57:13.000Z,99768
2018-05-01T09:58:58.000Z,99773
2018-05-01T10:00:13.000Z,99767
2018-05-01T10:02:13.000Z,99772
2018-05-01T10:04:13.000Z,99778
2018-05-01T10:06:13.000Z,99783
2018-05-01T10:07:58.000Z,99779
2018-05-01T10:09:13.000Z,99785
2018-05-01T10:11:13.000Z,99780
2018-05-01T10:13:13.000Z,99774
2018-05-01T10:15:13.000Z,99784
2018-05-01T10:16:13.000Z,99781
2018-05-01T10:18:13.000Z,99780
2018-05-01T10:19:13.000Z,99776
2018-05-01T10:20:58.000Z,99756
2018-05-01T10:22:13.000Z,99787
2018-05-01T10:23:13.000Z,99795
2018-05-01T10:25:13.000Z,99788
2018-05-01T10:27:13.000Z,99795
2018-05-01T10:28:13.000Z,99787
2018-05-01T10:30:13.000Z,99793
2018-05-01T10:32:13.000Z,99794
2018-05-01T10:34:13.000Z,99794
2018-05-01T10:36:13.000Z,99793
2018-05-01T10:38:13.000Z,99794
2018-05-01T10:39:13.000Z,99791
2018-05-01T10:40:43.000Z,99792
2018-05-01T10:42:13.000Z,99802
2018-05-01T10:43:58.000Z,99793
2018-05-01T10:45:13.000Z,99786
2018-05-01T10:47:13.000Z,99800
2018-05-01T10:49:13.000Z,99801
2018-05-01T10:51:13.000Z,99816
2018-05-01T10:53:13.000Z,99806
2018-05-01T10:54:13.000Z,99818
2018-05-01T10:56:13.000Z,99818
2018-05-01T10:58:13.000Z,99815
2018-05-01T11:00:13.000Z,99812
2018-05-01T11:01:13.000Z,99820
2018-05-01T11:03:13.000Z,99813
2018-05-01T11:05:13.000Z,99817
2018-05-01T11:07:13.000Z,99820
2018-05-01T11:08:13.000Z,99815
2018-05-01T11:09:13.000Z,99817
2018-05-01T11:11:13.000Z,99810
2018-05-01T11:13:13.000Z,99820
2018-05-01T11:14:13.000Z,99828
2018-05-01T11:16:13.000Z,99826
2018-05-01T11:18:13.000Z,99828
2018-05-01T11:20:13.000Z,99841
2018-05-01T11:21:13.000Z,99836
2018-05-01T11:23:13.000Z,99844
2018-05-01T11:25:13.000Z,99839
2018-05-01T11:27:13.000Z,99840
2018-05-01T11:29:13.000Z,99843
2018-05-01T11:30:13.000Z,99840
2018-05-01T11:31:13.000Z,99846
2018-05-01T11:33:13.000Z,99849
2018-05-01T11:35:13.000Z,99851
2018-05-01T11:37:13.000Z,99847
2018-05-01T11:39:13.000Z,99854
2018-05-01T11:41:13.000Z,99860
2018-05-01T11:43:13.000Z,99847
2018-05-01T11:45:13.000Z,99858
2018-05-01T11:47:13.000Z,99864
2018-05-01T11:49:13.000Z,99862
2018-05-01T11:51:13.000Z,99873
2018-05-01T11:53:13.000Z,99874
2018-05-01T11:55:13.000Z,99882
2018-05-01T11:57:13.000Z,99875
2018-05-01T11:58:13.000Z,99877
2018-05-01T12:00:13.000Z,99888
2018-05-01T12:02:13.000Z,99879
2018-05-01T12:03:13.000Z,99882
2018-05-01T12:05:13.000Z,99874
2018-05-01T12:06:13.000Z,99877
2018-05-01T12:08:13.000Z,99878
2018-05-01T12:09:13.000Z,99882
2018-05-01T12:11:13.000Z,99880
2018-05-01T12:12:13.000Z,99879
2018-05-01T12:14:13.000Z,99883
2018-05-01T12:15:13.000Z,99881
2018-05-01T12:17:13.000Z,99871
2018-05-01T12:19:13.000Z,99879
2018-05-01T12:20:58.000Z,99882
2018-05-01T12:22:13.000Z,99880
2018-05-01T12:23:13.000Z,99877
2018-05-01T12:24:58.000Z,99872
2018-05-01T12:26:13.000Z,99876
2018-05-01T12:28:13.000Z,99881
2018-05-01T12:30:13.000Z,99882
2018-05-01T12:31:43.000Z,99879
2018-05-01T12:33:13.000Z,99877
2018-05-01T12:34:13.000Z,99877
2018-05-01T12:35:58.000Z,99885
2018-05-01T12:37:13.000Z,99885
2018-05-01T12:39:13.000Z,99893
2018-05-01T12:41:13.000Z,99886
2018-05-01T12:42:13.000Z,99888
2018-05-01T12:44:13.000Z,99898
2018-05-01T12:45:13.000Z,99886
2018-05-01T12:47:13.000Z,99891
2018-05-01T12:48:13.000Z,99889
2018-05-01T12:50:13.000Z,99886
2018-05-01T12:52:13.000Z,99892
2018-05-01T12:54:13.000Z,99896
2018-05-01T12:55:13.000Z,99895
2018-05-01T12:56:58.000Z,99890
2018-05-01T12:58:13.000Z,99903
2018-05-01T12:59:13.000Z,99902
2018-05-01T13:01:13.000Z,99894
2018-05-01T13:02:13.000Z,99897
2018-05-01T13:04:13.000Z,99895
2018-05-01T13:05:13.000Z,99904
2018-05-01T13:07:13.000Z,99890
2018-05-01T13:09:13.000Z,99892
2018-05-01T13:10:13.000Z,99888
2018-05-01T13:12:13.000Z,99891
2018-05-01T13:13:58.000Z,99898
2018-05-01T13:15:13.000Z,99897
2018-05-01T13:16:13.000Z,99903
2018-05-01T13:18:13.000Z,99896
2018-05-01T13:19:13.000Z,99901
2018-05-01T13:20:13.000Z,99906
2018-05-01T13:22:13.000Z,99896
2018-05-01T13:24:13.000Z,99899
2018-05-01T13:26:13.000Z,99901
2018-05-01T13:28:13.000Z,99904
2018-05-01T13:29:13.000Z,99904
2018-05-01T13:31:13.000Z,99909
2018-05-01T13:33:13.000Z,99915
2018-05-01T13:35:13.000Z,99916
2018-05-01T13:37:13.000Z,99915
2018-05-01T13:39:13.000Z,99915
2018-05-01T13:40:13.000Z,99907
2018-05-01T13:42:13.000Z,99899
2018-05-01T13:44:13.000Z,99908
2018-05-01T13:46:13.000Z,99909
2018-05-01T13:48:13.000Z,99920
2018-05-01T13:49:58.000Z,99924
2018-05-01T13:51:13.000Z,99928
2018-05-01T13:53:13.000Z,99931
2018-05-01T13:55:13.000Z,99932
2018-05-01T13:57:13.000Z,99919
2018-05-01T13:59:13.000Z,99926
2018-05-01T14:01:13.000Z,99932
2018-05-01T14:02:13.000Z,99933
2018-05-01T14:04:13.000Z,99934
2018-05-01T14:06:13.000Z,99935
2018-05-01T14:07:13.000Z,99914
2018-05-01T14:08:58.000Z,99935
2018-05-01T14:10:13.000Z,99943
2018-05-01T14:12:13.000Z,99948
2018-05-01T14:13:42.000Z,99948
2018-05-01T14:15:13.000Z,99939
2018-05-01T14:17:13.000Z,99943
2018-05-01T14:18:13.000Z,99951
2018-05-01T14:19:13.000Z,99950
2018-05-01T14:20:13.000Z,99943
2018-05-01T14:22:13.000Z,99943
2018-05-01T14:24:13.000Z,99954
2018-05-01T14:25:13.000Z,99947
2018-05-01T14:26:13.000Z,99954
2018-05-01T14:27:58.000Z,99944
2018-05-01T14:29:13.000Z,99956
2018-05-01T14:30:13.000Z,99958
2018-05-01T14:32:13.000Z,99944
2018-05-01T14:34:13.000Z,99949
2018-05-01T14:36:13.000Z,99952
2018-05-01T14:38:13.000Z,99954
2018-05-01T14:40:13.000Z,99957
2018-05-01T14:41:58.000Z,99961
2018-05-01T14:43:13.000Z,99954
2018-05-01T14:45:13.000Z,99962
2018-05-01T14:46:13.000Z,99961
2018-05-01T14:48:13.000Z,99955
2018-05-01T14:50:13.000Z,99965
2018-05-01T14:52:13.000Z,99958
2018-05-01T14:53:13.000Z,99965
2018-05-01T14:54:13.000Z,99968
2018-05-01T14:56:13.000Z,99967
2018-05-01T14:58:13.000Z,99962
2018-05-01T15:00:13.000Z,99961
2018-05-01T15:02:13.000Z,99953
2018-05-01T15:04:13.000Z,99961
2018-05-01T15:06:13.000Z,99965
2018-05-01T15:08:13.000Z,99975
2018-05-01T15:09:58.000Z,99958
2018-05-01T15:11:13.000Z,99969
2018-05-01T15:12:13.000Z,99968
2018-05-01T15:14:13.000Z,99967
2018-05-01T15:15:13.000Z,99970
2018-05-01T15:16:13.000Z,99976
2018-05-01T15:18:13.000Z,99978
2018-05-01T15:20:13.000Z,99985
2018-05-01T15:21:58.000Z,99979
2018-05-01T15:23:13.000Z,99977
2018-05-01T15:24:13.000Z,99981
2018-05-01T15:26:13.000Z,99979
2018-05-01T15:28:13.000Z,99979
2018-05-01T15:29:13.000Z,99977
2018-05-01T15:30:43.000Z,99984
2018-05-01T15:32:13.000Z,99987
2018-05-01T15:34:13.000Z,99987
2018-05-01T15:36:13.000Z,99982
2018-05-01T15:38:13.000Z,99980
2018-05-01T15:40:13.000Z,99982
2018-05-01T15:42:13.000Z,99981
2018-05-01T15:44:13.000Z,99989
2018-05-01T15:45:58.000Z,99991
2018-05-01T15:47:13.000Z,99988
2018-05-01T15:48:13.000Z,99983
2018-05-01T15:49:13.000Z,99987
2018-05-01T15:51:13.000Z,99981
2018-05-01T15:52:58.000Z,99986
2018-05-01T15:54:13.000Z,99975
2018-05-01T15:55:58.000Z,99985
2018-05-01T15:57:13.000Z,99988
2018-05-01T15:58:58.000Z,99988
2018-05-01T15:59:58.000Z,99990
2018-05-01T16:01:13.000Z,99986
2018-05-01T16:02:13.000Z,99993
2018-05-01T16:04:13.000Z,99986
2018-05-01T16:06:13.000Z,99988
2018-05-01T16:07:13.000Z,99983
2018-05-01T16:09:13.000Z,99987
2018-05-01T16:11:13.000Z,99982
2018-05-01T16:12:13.000Z,99980
2018-05-01T16:14:13.000Z,99982
2018-05-01T16:16:13.000Z,99984
2018-05-01T16:17:42.000Z,99974
2018-05-01T16:19:13.000Z,99980
2018-05-01T16:21:13.000Z,99973
2018-05-01T16:23:13.000Z,99985
2018-05-01T16:25:13.000Z,99978
2018-05-01T16:26:13.000Z,99977
2018-05-01T16:27:13.000Z,99979
2018-05-01T16:28:13.000Z,99979
2018-05-01T16:30:13.000Z,99983
2018-05-01T16:32:13.000Z,99982
2018-05-01T16:34:13.000Z,99981
2018-05-01T16:36:13.000Z,99981
2018-05-01T16:37:13.000Z,99974
2018-05-01T16:39:13.000Z,99980
2018-05-01T16:40:13.000Z,99980
2018-05-01T16:42:13.000Z,99981
2018-05-01T16:43:42.000Z,99975
2018-05-01T16:45:13.000Z,99976
2018-05-01T16:46:13.000Z,99980
2018-05-01T16:48:13.000Z,99976
2018-05-01T16:50:13.000Z,99982
2018-05-01T16:51:13.000Z,99981
2018-05-01T16:53:13.000Z,99978
2018-05-01T16:54:13.000Z,99976
2018-05-01T16:56:13.000Z,99969
2018-05-01T16:57:13.000Z,99976
2018-05-01T16:58:13.000Z,99977
2018-05-01T16:59:58.000Z,99976
2018-05-01T17:01:13.000Z,99973
2018-05-01T17:02:13.000Z,99973
2018-05-01T17:03:58.000Z,99967
2018-05-01T17:05:13.000Z,99967
2018-05-01T17:07:13.000Z,99968
2018-05-01T17:08:13.000Z,99969
2018-05-01T17:09:13.000Z,99968
2018-05-01T17:11:13.000Z,99978
2018-05-01T17:12:13.000Z,99974
2018-05-01T17:14:13.000Z,99979
2018-05-01T17:16:13.000Z,99979
2018-05-01T17:17:13.000Z,99986
2018-05-01T17:19:13.000Z,99986
2018-05-01T17:21:13.000Z,99988
2018-05-01T17:22:58.000Z,99990
2018-05-01T17:24:13.000Z,99994
2018-05-01T17:26:13.000Z,99993
2018-05-01T17:28:13.000Z,99986
2018-05-01T17:30:13.000Z,99997
2018-05-01T17:32:13.000Z,99995
2018-05-01T17:34:13.000Z,99992
2018-05-01T17:36:13.000Z,99993
2018-05-01T17:37:58.000Z,99998
2018-05-01T17:39:13.000Z,99997
2018-05-01T17:40:13.000Z,99997
2018-05-01T17:42:13.000Z,100000
2018-05-01T17:43:13.000Z,100005
2018-05-01T17:44:13.000Z,100001
2018-05-01T17:46:13.000Z,100011
2018-05-01T17:48:13.000Z,100004
2018-05-01T17:50:13.000Z,100005
2018-05-01T17:51:58.000Z,100010
2018-05-01T17:53:13.000Z,100003
2018-05-01T17:55:13.000Z,100006
2018-05-01T17:57:13.000Z,100004
2018-05-01T17:59:13.000Z,100010
2018-05-01T18:00:13.000Z,100012
2018-05-01T18:02:13.000Z,100013
2018-05-01T18:04:13.000Z,100017
2018-05-01T18:05:13.000Z,100019
2018-05-01T18:07:13.000Z,100020
2018-05-01T18:08:13.000Z,100021
2018-05-01T18:10:13.000Z,100024
2018-05-01T18:12:13.000Z,100024
2018-05-01T18:13:58.000Z,100026
2018-05-01T18:15:13.000Z,100021
2018-05-01T18:17:13.000Z,100026
2018-05-01T18:18:13.000Z,100020
2018-05-01T18:20:13.000Z,100028
2018-05-01T18:21:43.000Z,100025
2018-05-01T18:23:13.000Z,100030
2018-05-01T18:24:13.000Z,100034
2018-05-01T18:25:58.000Z,100035
2018-05-01T18:27:13.000Z,100038
2018-05-01T18:29:13.000Z,100039
2018-05-01T18:31:13.000Z,100037
2018-05-01T18:32:13.000Z,100041
2018-05-01T18:33:13.000Z,100042
2018-05-01T18:35:13.000Z,100046
2018-05-01T18:36:13.000Z,100041
2018-05-01T18:38:13.000Z,100046
2018-05-01T18:39:13.000Z,100046
2018-05-01T18:41:13.000Z,100042
2018-05-01T18:43:13.000Z,100046
2018-05-01T18:44:13.000Z,100048
2018-05-01T18:46:13.000Z,100048
2018-05-01T18:48:13.000Z,100049
2018-05-01T18:49:13.000Z,100052
2018-05-01T18:50:13.000Z,100053
2018-05-01T18:52:13.000Z,100052
2018-05-01T18:53:13.000Z,100050
2018-05-01T18:54:58.000Z,100047
2018-05-01T18:56:13.000Z,100048
2018-05-01T18:58:13.000Z,100051
2018-05-01T19:00:13.000Z,100051
2018-05-01T19:01:13.000Z,100053
2018-05-01T19:02:13.000Z,100050
2018-05-01T19:04:13.000Z,100052
2018-05-01T19:06:13.000Z,100055
2018-05-01T19:07:13.000Z,100059
2018-05-01T19:08:13.000Z,100057
2018-05-01T19:09:58.000Z,100059
2018-05-01T19:11:13.000Z,100060
2018-05-01T19:12:13.000Z,100059
2018-05-01T19:14:13.000Z,100057
2018-05-01T19:16:13.000Z,100059
2018-05-01T19:18:13.000Z,100059
2018-05-01T19:20:13.000Z,100064
2018-05-01T19:21:58.000Z,100063
2018-05-01T19:23:13.000Z,100068
2018-05-01T19:24:13.000Z,100068
2018-05-01T19:26:13.000Z,100073
2018-05-01T19:28:13.000Z,100080
2018-05-01T19:30:13.000Z,100078
2018-05-01T19:32:13.000Z,100080
2018-05-01T19:33:58.000Z,100081
2018-05-01T19:35:13.000Z,100082
2018-05-01T19:36:13.000Z,100081
2018-05-01T19:38:13.000Z,100082
2018-05-01T19:40:13.000Z,100079
2018-05-01T19:42:13.000Z,100083
2018-05-01T19:44:13.000Z,100083
2018-05-01T19:46:13.000Z,100087
2018-05-01T19:48:13.000Z,100083
2018-05-01T19:50:13.000Z,100082
2018-05-01T19:51:43.000Z,100088
2018-05-01T19:53:13.000Z,100086
2018-05-01T19:54:13.000Z,100089
2018-05-01T19:56:13.000Z,100089
2018-05-01T19:58:13.000Z,100089
2018-05-01T20:00:13.000Z,100095
2018-05-01T20:01:13.000Z,100090
2018-05-01T20:02:13.000Z,100094
2018-05-01T20:04:13.000Z,100091
2018-05-01T20:05:13.000Z,100093
2018-05-01T20:06:13.000Z,100088
2018-05-01T20:08:13.000Z,100092
2018-05-01T20:09:13.000Z,100093
2018-05-01T20:11:13.000Z,100089
2018-05-01T20:13:13.000Z,100091
2018-05-01T20:14:13.000Z,100086
2018-05-01T20:16:13.000Z,100088
2018-05-01T20:18:13.000Z,100086
2018-05-01T20:19:58.000Z,100085
2018-05-01T20:21:13.000Z,100088
2018-05-01T20:22:13.000Z,100093
2018-05-01T20:23:13.000Z,100096
2018-05-01T20:24:13.000Z,100096
2018-05-01T20:25:58.000Z,100098
2018-05-01T20:27:13.000Z,100096
2018-05-01T20:28:13.000Z,100094
2018-05-01T20:29:58.000Z,100095
2018-05-01T20:31:13.000Z,100096
2018-05-01T20:32:58.000Z,100094
2018-05-01T20:34:13.000Z,100098
2018-05-01T20:36:13.000Z,100091
2018-05-01T20:38:13.000Z,100086
2018-05-01T20:40:13.000Z,100091
2018-05-01T20:42:13.000Z,100092
2018-05-01T20:43:13.000Z,100088
2018-05-01T20:44:13.000Z,100088
2018-05-01T20:46:13.000Z,100088
2018-05-01T20:47:58.000Z,100093
2018-05-01T20:49:13.000Z,100095
2018-05-01T20:51:13.000Z,100096
2018-05-01T20:53:13.000Z,100098
2018-05-01T20:55:13.000Z,100102